Time;durP1;ratioP1;P1;durP2;ratioP2;P2;SDS_P1;SDS_P2;PMS_P1;PMS_P2;Temp;Humidity;BMP_temperature;BMP_pressure;BME280_temperature;BME280_humidity;BME280_pressure;Samples;Min_cycle;Max_cycle;Signal;HPM_P1;HPM_P2
2022/04/17 00:01:43;;;;;;;3.33;3.13;;;;;;;9.03;62.99;96044.34;5094718;28;20032;-59
2022/04/17 00:04:10;;;;;;;3.15;2.95;;;;;;;9.03;62.99;96036.44;5099945;28;20076;-58
2022/04/17 00:06:37;;;;;;;6.53;3.78;;;;;;;9.07;63.16;96032.59;5094005;28;20020;-59
2022/04/17 00:09:02;;;;;;;3.20;3.00;;;;;;;9.27;62.90;96027.53;5092334;28;20546;-59
2022/04/17 00:11:28;;;;;;;3.38;3.17;;;;;;;9.06;62.79;96030.94;5095006;28;20040;-59
2022/04/17 00:13:54;;;;;;;3.38;2.92;;;;;;;9.08;62.88;96034.28;5095337;28;20047;-59
2022/04/17 00:16:20;;;;;;;3.75;3.45;;;;;;;9.13;62.82;96026.03;5096333;28;20028;-59
2022/04/17 00:18:45;;;;;;;3.45;3.25;;;;;;;9.06;63.56;96037.97;5096859;28;20106;-59
2022/04/17 00:21:11;;;;;;;3.42;3.13;;;;;;;8.97;64.45;96031.69;5095716;28;20024;-59
2022/04/17 00:23:36;;;;;;;4.85;3.13;;;;;;;8.79;65.20;96029.59;5095316;28;20035;-58
2022/04/17 00:26:02;;;;;;;3.03;2.83;;;;;;;8.78;65.31;96033.16;5094944;28;20023;-59
2022/04/17 00:28:27;;;;;;;3.10;2.90;;;;;;;8.68;66.21;96030.44;5093049;28;20131;-59
2022/04/17 00:30:53;;;;;;;3.00;2.80;;;;;;;8.76;65.26;96037.72;5093445;28;20038;-58
2022/04/17 00:33:18;;;;;;;4.75;3.00;;;;;;;8.55;66.19;96027.97;5097330;28;20024;-59
2022/04/17 00:35:44;;;;;;;3.88;3.58;;;;;;;8.57;66.42;96028.66;5094552;28;20043;-59
2022/04/17 00:38:10;;;;;;;4.07;3.63;;;;;;;8.62;65.09;96033.56;5095839;28;20016;-59
2022/04/17 00:40:36;;;;;;;12.18;4.10;;;;;;;8.66;64.95;96034.97;5095232;28;20039;-59
2022/04/17 00:43:01;;;;;;;3.28;3.08;;;;;;;8.67;65.50;96033.19;5094542;28;20051;-59
2022/04/17 00:45:26;;;;;;;3.20;2.63;;;;;;;8.64;65.54;96030.78;5095410;28;20102;-59
2022/04/17 00:47:52;;;;;;;3.63;3.30;;;;;;;8.59;66.18;96028.53;5093260;28;20066;-58
2022/04/17 00:50:18;;;;;;;3.55;3.30;;;;;;;8.48;66.22;96026.72;5093329;28;20035;-58
2022/04/17 00:52:45;;;;;;;3.28;3.08;;;;;;;8.49;65.69;96032.81;5093419;28;20024;-58
2022/04/17 00:55:12;;;;;;;3.63;3.42;;;;;;;8.49;65.46;96033.63;5095002;28;20085;-59
2022/04/17 00:57:37;;;;;;;3.42;3.22;;;;;;;8.49;65.29;96031.00;5094759;28;20028;-58
2022/04/17 01:00:08;;;;;;;3.80;3.55;;;;;;;8.48;64.82;96031.97;5092607;28;20024;-58
2022/04/17 01:02:33;;;;;;;4.07;3.78;;;;;;;8.46;64.98;96037.34;5095144;28;20043;-59
2022/04/17 01:04:59;;;;;;;3.67;3.47;;;;;;;8.50;65.16;96040.59;5095781;28;20085;-58
2022/04/17 01:07:24;;;;;;;3.92;3.63;;;;;;;8.36;65.69;96043.44;5096479;28;20032;-58
2022/04/17 01:09:51;;;;;;;3.47;3.28;;;;;;;8.36;65.30;96046.06;5092703;28;20419;-59
2022/04/17 01:12:18;;;;;;;4.70;3.60;;;;;;;8.38;65.32;96052.03;5093584;28;20077;-59
2022/04/17 01:14:44;;;;;;;3.83;3.63;;;;;;;8.37;65.42;96056.41;5093139;28;20127;-59
2022/04/17 01:17:10;;;;;;;6.80;3.72;;;;;;;8.34;65.38;96051.41;5095540;28;20069;-59
2022/04/17 01:19:39;;;;;;;4.05;3.78;;;;;;;8.37;64.58;96060.84;5095020;28;20032;-59
2022/04/17 01:22:10;;;;;;;4.10;3.80;;;;;;;8.32;65.16;96059.41;5094104;28;20115;-59
2022/04/17 01:27:22;;;;;;;4.00;3.47;;;;;;;8.29;64.94;96059.66;5095000;28;20043;-59
2022/04/17 01:29:47;;;;;;;4.18;3.85;;;;;;;8.22;65.27;96058.44;5096473;28;20381;-59
2022/04/17 01:32:14;;;;;;;4.20;3.90;;;;;;;8.17;65.64;96053.53;5094268;28;20406;-59
2022/04/17 01:34:40;;;;;;;4.07;3.78;;;;;;;8.14;66.86;96055.59;5091156;28;20034;-59
2022/04/17 01:37:05;;;;;;;4.95;3.72;;;;;;;7.97;68.49;96055.09;5091600;28;20025;-59
2022/04/17 01:39:31;;;;;;;4.50;4.10;;;;;;;7.77;69.04;96058.38;5095155;28;20030;-59
2022/04/17 01:41:58;;;;;;;4.40;4.10;;;;;;;7.73;68.90;96058.63;5103723;28;20019;-59
2022/04/17 01:44:25;;;;;;;3.95;3.65;;;;;;;7.70;69.34;96055.38;5093107;28;20515;-59
2022/04/17 01:46:51;;;;;;;3.80;3.50;;;;;;;7.81;69.31;96049.31;5093330;28;20051;-59
2022/04/17 01:49:17;;;;;;;3.58;3.30;;;;;;;7.73;68.80;96049.91;5096525;28;20036;-59
2022/04/17 01:51:44;;;;;;;4.50;3.40;;;;;;;7.61;70.30;96056.91;5092513;28;20506;-59
2022/04/17 01:54:13;;;;;;;3.70;3.50;;;;;;;7.64;69.84;96058.47;5093929;28;20036;-59
2022/04/17 01:56:40;;;;;;;5.10;3.75;;;;;;;7.65;69.60;96053.13;5093723;28;20024;-59
2022/04/17 01:59:07;;;;;;;3.83;3.50;;;;;;;7.70;69.59;96053.59;5094291;28;20039;-59
2022/04/17 02:01:34;;;;;;;3.55;3.30;;;;;;;7.58;69.96;96051.88;5094328;28;20445;-59
2022/04/17 02:04:01;;;;;;;4.10;3.90;;;;;;;7.57;70.77;96047.59;5095026;28;20820;-59
2022/04/17 02:06:26;;;;;;;3.60;3.40;;;;;;;7.53;70.24;96051.41;5093597;28;20034;-59
2022/04/17 02:08:52;;;;;;;5.30;3.70;;;;;;;7.32;70.83;96059.91;5094824;28;20032;-58
2022/04/17 02:11:18;;;;;;;3.80;3.50;;;;;;;7.37;70.40;96051.72;5095847;28;20403;-59
2022/04/17 02:13:45;;;;;;;3.85;3.55;;;;;;;7.33;70.70;96043.22;5096591;28;20039;-59
2022/04/17 02:16:11;;;;;;;3.58;3.33;;;;;;;7.25;71.06;96054.28;5095127;28;20024;-58
2022/04/17 02:18:36;;;;;;;3.67;3.47;;;;;;;7.22;70.84;96045.81;5091981;28;20119;-59
2022/04/17 02:21:01;;;;;;;5.40;3.28;;;;;;;7.42;70.28;96049.59;5091841;28;20487;-59
2022/04/17 02:23:27;;;;;;;3.67;3.40;;;;;;;7.34;70.83;96057.19;5093191;28;20031;-59
2022/04/17 02:25:53;;;;;;;3.72;3.42;;;;;;;7.31;70.20;96058.22;5093278;28;20448;-59
2022/04/17 02:28:18;;;;;;;3.55;3.35;;;;;;;7.37;70.14;96055.16;5094155;28;20514;-59
2022/04/17 02:30:43;;;;;;;3.72;3.53;;;;;;;7.28;70.78;96055.84;5091945;28;20514;-60
2022/04/17 02:33:09;;;;;;;3.45;3.22;;;;;;;7.28;70.54;96054.03;5093003;28;20036;-59
2022/04/17 02:35:34;;;;;;;3.65;3.42;;;;;;;7.27;70.40;96052.38;5093321;28;20051;-59
2022/04/17 02:38:00;;;;;;;3.45;3.25;;;;;;;7.34;70.60;96052.75;5094870;28;20544;-59
2022/04/17 02:40:25;;;;;;;4.05;3.65;;;;;;;7.30;70.81;96052.19;5097449;28;20655;-59
2022/04/17 02:42:53;;;;;;;3.80;3.50;;;;;;;7.27;71.24;96051.56;5093670;28;20161;-58
2022/04/17 02:45:19;;;;;;;3.63;3.42;;;;;;;7.26;71.25;96050.69;5093518;28;20028;-59
2022/04/17 02:47:45;;;;;;;4.35;3.53;;;;;;;7.19;71.57;96049.50;5091771;28;20032;-59
2022/04/17 02:50:13;;;;;;;3.50;3.30;;;;;;;7.12;71.46;96051.72;5095792;28;20031;-58
2022/04/17 02:52:39;;;;;;;3.58;3.38;;;;;;;6.99;72.09;96048.34;5092557;28;20024;-59
2022/04/17 02:55:06;;;;;;;3.63;3.33;;;;;;;7.07;71.24;96038.13;5096629;28;20020;-59
2022/04/17 02:57:32;;;;;;;3.97;3.53;;;;;;;7.06;71.44;96036.47;5094975;28;20497;-59
2022/04/17 02:59:58;;;;;;;2.90;2.80;;;;;;;7.00;71.64;96034.28;5096717;28;20097;-59
2022/04/17 03:08:14;;;;;;;3.83;3.45;;;;;;;6.72;72.89;96031.88;5075351;28;20036;-58
2022/04/17 03:10:42;;;;;;;5.50;3.15;;;;;;;6.70;73.16;96027.69;5067201;28;20025;-58
2022/04/17 03:13:08;;;;;;;3.63;3.42;;;;;;;6.68;73.39;96024.34;5082586;28;20040;-59
2022/04/17 03:15:37;;;;;;;4.50;3.33;;;;;;;6.63;73.31;96026.47;5099875;28;20032;-59
2022/04/17 03:18:03;;;;;;;3.95;3.67;;;;;;;6.65;72.91;96024.56;5096972;28;20020;-58
2022/04/17 03:20:29;;;;;;;3.88;3.58;;;;;;;6.57;72.93;96018.13;5096149;28;20033;-58
2022/04/17 03:22:54;;;;;;;4.97;3.97;;;;;;;6.51;73.53;96018.53;5096103;28;20153;-59
2022/04/17 03:25:20;;;;;;;4.00;3.70;;;;;;;6.44;73.72;96022.53;5094454;28;20121;-59
2022/04/17 03:27:49;;;;;;;3.72;3.53;;;;;;;6.37;74.27;96027.34;5096448;28;20463;-58
2022/04/17 03:30:18;;;;;;;3.63;3.42;;;;;;;6.36;75.22;96033.53;5097000;28;20028;-59
2022/04/17 03:32:45;;;;;;;4.00;3.70;;;;;;;6.25;74.75;96036.06;5088883;28;20024;-58
2022/04/17 03:35:12;;;;;;;5.22;3.65;;;;;;;6.21;74.87;96032.81;5097897;28;20581;-59
2022/04/17 03:37:37;;;;;;;3.80;3.50;;;;;;;6.28;75.09;96039.28;5096579;28;20089;-59
2022/04/17 03:40:04;;;;;;;3.42;3.20;;;;;;;6.34;75.15;96039.81;5094045;28;20114;-59
2022/04/17 03:42:29;;;;;;;4.38;3.42;;;;;;;6.34;75.10;96037.22;5096510;28;20040;-59
2022/04/17 03:44:55;;;;;;;3.30;3.10;;;;;;;6.37;74.52;96034.38;5096076;28;20031;-59
2022/04/17 03:47:21;;;;;;;3.80;3.60;;;;;;;6.28;75.70;96039.28;5096503;28;20015;-59
2022/04/17 03:49:46;;;;;;;3.95;3.65;;;;;;;6.27;75.49;96036.78;5095333;28;20036;-59
2022/04/17 03:52:11;;;;;;;5.85;3.70;;;;;;;6.15;76.21;96039.31;5096141;28;20443;-59
2022/04/17 03:54:37;;;;;;;4.28;3.40;;;;;;;6.09;77.73;96038.91;5096161;28;20475;-59
2022/04/17 03:57:02;;;;;;;4.18;3.80;;;;;;;5.97;76.96;96041.38;5098790;28;20436;-58
2022/04/17 03:59:28;;;;;;;4.22;3.22;;;;;;;5.90;77.35;96045.38;5096488;28;20031;-58
2022/04/17 04:01:53;;;;;;;3.78;3.45;;;;;;;5.84;77.82;96043.16;5095562;28;20285;-58
2022/04/17 04:04:19;;;;;;;4.88;4.35;;;;;;;5.81;77.54;96053.81;5098078;28;20027;-59
2022/04/17 04:06:44;;;;;;;4.40;4.07;;;;;;;5.74;77.76;96049.00;5094488;28;20031;-59
2022/04/17 04:09:10;;;;;;;4.57;4.20;;;;;;;5.71;77.33;96054.44;5095194;28;20380;-59
2022/04/17 04:11:35;;;;;;;4.20;3.90;;;;;;;5.73;77.97;96047.34;5098434;28;20055;-59
2022/04/17 04:14:03;;;;;;;4.10;3.80;;;;;;;5.74;77.24;96046.41;5098466;28;20032;-59
2022/04/17 04:16:29;;;;;;;4.70;4.00;;;;;;;5.72;77.59;96056.13;5099671;28;20479;-59
2022/04/17 04:18:54;;;;;;;4.13;3.53;;;;;;;5.64;78.62;96054.94;5095197;28;20077;-58
2022/04/17 04:21:19;;;;;;;3.83;3.63;;;;;;;5.61;78.52;96055.97;5094878;28;20078;-59
2022/04/17 04:23:45;;;;;;;4.78;4.30;;;;;;;5.61;78.62;96055.97;5096546;28;20154;-58
2022/04/17 04:26:10;;;;;;;4.28;3.97;;;;;;;5.57;79.35;96057.97;5096234;28;20039;-59
2022/04/17 04:28:38;;;;;;;4.80;4.40;;;;;;;5.52;79.13;96052.19;5094625;28;20028;-58
2022/04/17 04:31:05;;;;;;;4.38;4.10;;;;;;;5.52;78.36;96054.00;5094610;28;20552;-59
2022/04/17 04:33:31;;;;;;;3.92;3.63;;;;;;;5.52;79.45;96052.19;5094999;28;20056;-59
2022/04/17 04:35:58;;;;;;;4.88;4.40;;;;;;;5.45;79.91;96050.94;5095655;28;20036;-59
2022/04/17 04:38:24;;;;;;;4.63;4.18;;;;;;;5.38;80.37;96054.91;5093558;28;20024;-59
2022/04/17 04:40:49;;;;;;;6.85;4.28;;;;;;;5.36;79.85;96052.38;5100623;28;20088;-59
2022/04/17 04:43:16;;;;;;;4.53;4.22;;;;;;;5.33;79.18;96052.59;5096761;28;20101;-58
2022/04/17 04:51:09;;;;;;;4.35;4.05;;;;;;;5.25;79.43;96054.88;5090202;28;20088;-59
2022/04/17 04:53:34;;;;;;;4.20;3.90;;;;;;;5.22;79.78;96055.09;5096268;27;20520;-59
2022/04/17 04:56:00;;;;;;;4.05;3.75;;;;;;;5.24;79.42;96059.25;5093259;28;20117;-58
2022/04/17 04:58:25;;;;;;;4.30;3.90;;;;;;;5.24;79.69;96068.88;5095012;28;20031;-59
2022/04/17 05:00:50;;;;;;;4.18;3.78;;;;;;;5.22;79.22;96062.91;5093764;28;20522;-59
2022/04/17 05:03:16;;;;;;;3.95;3.65;;;;;;;5.26;79.63;96059.16;5096917;28;20028;-59
2022/04/17 05:05:41;;;;;;;4.32;4.03;;;;;;;5.30;79.19;96056.25;5096539;28;20028;-58
2022/04/17 05:08:06;;;;;;;5.78;5.28;;;;;;;5.36;79.10;96052.38;5096980;28;20028;-59
2022/04/17 05:10:32;;;;;;;7.43;6.70;;;;;;;5.45;78.95;96061.38;5094021;28;20111;-59
2022/04/17 05:12:57;;;;;;;7.47;5.53;;;;;;;5.41;80.22;96054.69;5096927;28;20495;-59
2022/04/17 05:15:22;;;;;;;6.45;4.95;;;;;;;5.40;79.36;96051.25;5097170;28;20096;-59
2022/04/17 05:17:48;;;;;;;7.32;4.97;;;;;;;5.42;79.27;96052.00;5095193;28;20024;-60
2022/04/17 05:20:14;;;;;;;4.30;4.00;;;;;;;5.47;80.67;96058.69;5094410;28;20032;-59
2022/04/17 05:22:40;;;;;;;4.35;3.95;;;;;;;5.47;80.06;96063.91;5092595;28;20032;-59
2022/04/17 05:25:05;;;;;;;4.75;3.85;;;;;;;5.53;80.34;96059.13;5093916;28;20027;-59
2022/04/17 05:27:31;;;;;;;4.43;4.00;;;;;;;5.56;79.29;96058.91;5097870;28;20028;-59
2022/04/17 05:29:56;;;;;;;4.00;3.70;;;;;;;5.53;80.53;96077.41;5092941;28;20487;-59
2022/04/17 05:32:21;;;;;;;4.15;3.78;;;;;;;5.53;79.64;96074.78;5094214;28;20510;-59
2022/04/17 05:34:47;;;;;;;3.58;3.28;;;;;;;5.53;80.01;96082.63;5094529;28;20020;-58
2022/04/17 05:37:12;;;;;;;6.60;3.70;;;;;;;5.53;80.82;96090.47;5092855;28;20052;-59
2022/04/17 05:39:38;;;;;;;4.35;3.92;;;;;;;5.45;81.76;96090.97;5095424;28;20024;-58
2022/04/17 05:42:03;;;;;;;4.07;3.78;;;;;;;5.48;81.29;96094.31;5093491;28;20148;-59
2022/04/17 05:44:29;;;;;;;2.97;2.78;;;;;;;5.50;80.66;96092.44;5096294;28;20130;-59
2022/04/17 05:46:56;;;;;;;3.85;3.55;;;;;;;5.53;82.11;96084.41;5094295;28;20495;-58
2022/04/17 05:49:22;;;;;;;4.50;4.20;;;;;;;5.55;81.63;96074.69;5093607;28;20039;-58
2022/04/17 05:51:47;;;;;;;4.40;4.10;;;;;;;5.57;81.25;96076.25;5095103;28;20060;-59
2022/04/17 05:54:13;;;;;;;4.03;3.65;;;;;;;5.59;81.17;96078.75;5097285;28;20048;-58
2022/04/17 05:56:38;;;;;;;5.00;3.78;;;;;;;5.64;80.86;96075.84;5093914;28;20024;-59
2022/04/17 05:59:05;;;;;;;4.43;4.03;;;;;;;5.51;81.39;96083.66;5095078;28;20035;-59
2022/04/17 06:01:30;;;;;;;3.88;3.58;;;;;;;5.57;80.58;96081.50;5094307;28;20077;-59
2022/04/17 06:03:56;;;;;;;4.78;4.35;;;;;;;5.70;79.50;96078.03;5095465;28;20027;-59
2022/04/17 06:06:21;;;;;;;4.25;3.95;;;;;;;5.82;78.89;96085.06;5094432;28;20032;-59
2022/04/17 06:08:47;;;;;;;4.03;3.70;;;;;;;5.93;78.76;96086.13;5093071;28;20064;-59
2022/04/17 06:11:13;;;;;;;4.65;3.88;;;;;;;5.95;79.24;96086.84;5093160;28;20024;-58
2022/04/17 06:13:38;;;;;;;4.60;4.00;;;;;;;5.96;79.63;96094.59;5093808;28;20028;-58
2022/04/17 06:16:04;;;;;;;9.32;3.72;;;;;;;5.97;79.19;96085.81;5094897;28;20024;-58
2022/04/17 06:18:30;;;;;;;4.68;4.07;;;;;;;5.95;80.58;96079.84;5094910;28;20097;-58
2022/04/17 06:20:56;;;;;;;4.25;3.95;;;;;;;5.97;79.46;96088.44;5091062;28;20062;-59
2022/04/17 06:23:21;;;;;;;4.35;4.00;;;;;;;6.09;79.72;96084.19;5094158;28;20065;-58
2022/04/17 06:25:46;;;;;;;4.28;3.88;;;;;;;6.54;77.26;96085.50;5094601;28;20039;-59
2022/04/17 06:28:12;;;;;;;4.05;3.85;;;;;;;7.17;75.26;96085.44;5096592;28;20547;-59
2022/04/17 06:30:37;;;;;;;4.10;3.88;;;;;;;7.97;73.05;96086.56;5095178;28;20273;-59
2022/04/17 06:33:03;;;;;;;4.72;4.35;;;;;;;8.55;69.34;96083.06;5098187;28;20125;-58
2022/04/17 06:35:28;;;;;;;5.80;4.18;;;;;;;9.35;66.23;96085.53;5098039;28;20037;-59
2022/04/17 06:37:59;;;;;;;4.20;3.90;;;;;;;9.96;64.80;96081.44;5097246;28;20111;-59
2022/04/17 06:40:28;;;;;;;4.60;4.10;;;;;;;10.40;60.33;96077.81;5097791;28;20055;-59
2022/04/17 06:42:55;;;;;;;4.13;3.83;;;;;;;10.72;61.27;96075.06;5096074;28;20083;-59
2022/04/17 06:45:22;;;;;;;3.53;3.33;;;;;;;10.91;58.33;96075.25;5098345;28;20077;-59
2022/04/17 06:47:48;;;;;;;4.05;3.75;;;;;;;11.53;58.24;96069.78;5095936;28;20098;-59
2022/04/17 06:50:15;;;;;;;4.25;3.95;;;;;;;11.81;55.99;96065.47;5096882;28;20142;-59
2022/04/17 06:52:40;;;;;;;4.20;3.90;;;;;;;12.23;54.61;96063.50;5099635;28;20032;-59
2022/04/17 06:55:11;;;;;;;4.55;4.15;;;;;;;12.18;54.20;96063.91;5096882;28;20140;-59
2022/04/17 06:57:39;;;;;;;4.22;3.80;;;;;;;12.66;52.35;96058.59;5095304;28;20041;-59
2022/04/17 07:00:09;;;;;;;4.60;4.25;;;;;;;12.73;53.55;96065.00;5097055;28;20055;-59
2022/04/17 07:02:38;;;;;;;4.30;3.60;;;;;;;13.22;49.83;96062.06;5096436;28;20090;-59
2022/04/17 07:05:05;;;;;;;3.75;3.50;;;;;;;13.77;48.70;96060.28;5095550;28;20042;-59
2022/04/17 07:07:31;;;;;;;4.05;3.55;;;;;;;13.69;48.32;96055.75;5095750;28;20032;-59
2022/04/17 07:09:56;;;;;;;4.20;3.90;;;;;;;13.99;47.34;96050.19;5099061;28;20026;-59
2022/04/17 07:12:21;;;;;;;3.50;3.30;;;;;;;14.13;46.52;96039.03;5098875;28;20024;-59
2022/04/17 07:14:48;;;;;;;3.80;3.50;;;;;;;14.29;48.34;96038.31;5095764;28;20048;-59
2022/04/17 07:17:14;;;;;;;3.42;3.13;;;;;;;14.14;46.58;96034.59;5096741;28;20101;-60
2022/04/17 07:19:39;;;;;;;3.95;3.20;;;;;;;14.70;47.67;96028.88;5095946;28;20507;-59
2022/04/17 07:22:05;;;;;;;5.32;3.22;;;;;;;15.12;44.97;96020.13;5096024;28;20039;-59
2022/04/17 07:24:30;;;;;;;5.43;3.40;;;;;;;15.01;45.15;96025.72;5099592;28;20026;-59
2022/04/17 07:26:56;;;;;;;3.65;3.40;;;;;;;14.78;44.58;96033.44;5096543;28;20388;-60
2022/04/17 07:29:25;;;;;;;3.45;3.25;;;;;;;14.71;44.59;96025.31;5097645;28;20118;-59
2022/04/17 07:31:51;;;;;;;3.80;3.30;;;;;;;15.07;45.32;96019.78;5095651;28;20560;-59
2022/04/17 07:34:20;;;;;;;4.30;3.90;;;;;;;15.43;43.05;96016.03;5098821;28;20396;-59
2022/04/17 07:36:47;;;;;;;4.47;3.25;;;;;;;15.36;42.59;96015.84;5095579;28;20165;-59
2022/04/17 07:39:17;;;;;;;3.45;3.15;;;;;;;15.67;42.34;96025.81;5097706;28;20067;-60
2022/04/17 07:41:44;;;;;;;3.70;3.40;;;;;;;15.51;43.07;96028.47;5094602;28;20028;-59
2022/04/17 07:44:12;;;;;;;3.17;2.88;;;;;;;15.54;42.68;96026.31;5095786;28;20042;-59
2022/04/17 07:46:42;;;;;;;7.80;3.20;;;;;;;15.80;42.68;96029.78;5097828;28;20030;-60
2022/04/17 07:49:08;;;;;;;3.33;3.13;;;;;;;15.64;42.80;96022.66;5097407;28;20032;-59
2022/04/17 07:51:33;;;;;;;3.58;3.30;;;;;;;15.57;43.25;96019.84;5094402;27;20020;-59
2022/04/17 07:53:59;;;;;;;3.63;3.38;;;;;;;15.08;43.93;96021.44;5096147;28;20093;-58
2022/04/17 07:56:24;;;;;;;3.88;3.67;;;;;;;15.67;42.18;96025.00;5099877;28;20482;-58
2022/04/17 07:58:50;;;;;;;3.85;3.60;;;;;;;15.80;42.18;96027.97;5096837;28;20111;-59
2022/04/17 08:01:16;;;;;;;3.60;3.40;;;;;;;15.89;41.87;96034.16;5097029;28;20495;-59
2022/04/17 08:06:09;;;;;;;3.70;3.40;;;;;;;15.46;43.78;96040.41;5094591;28;20028;-59
2022/04/17 08:08:36;;;;;;;3.22;3.03;;;;;;;15.54;42.81;96030.78;5098254;28;20055;-59
2022/04/17 08:11:02;;;;;;;3.55;3.25;;;;;;;15.56;43.53;96034.94;5098409;28;20032;-58
2022/04/17 08:13:28;;;;;;;3.58;3.33;;;;;;;16.02;42.98;96039.75;5094526;28;20032;-58
2022/04/17 08:15:53;;;;;;;4.00;3.47;;;;;;;15.64;43.06;96035.94;5094192;28;20038;-58
2022/04/17 08:18:19;;;;;;;3.65;3.45;;;;;;;15.88;42.56;96029.81;5098468;28;20028;-59
2022/04/17 08:20:45;;;;;;;5.43;3.40;;;;;;;16.31;41.52;96027.78;5094114;28;20039;-58
2022/04/17 08:23:11;;;;;;;4.10;3.25;;;;;;;15.91;43.11;96026.84;5099001;28;20023;-58
2022/04/17 08:25:37;;;;;;;4.10;3.70;;;;;;;16.30;42.30;96025.28;5093757;28;20036;-58
2022/04/17 08:28:03;;;;;;;3.58;3.38;;;;;;;16.41;41.48;96021.44;5095167;28;20024;-58
2022/04/17 08:30:30;;;;;;;3.78;3.17;;;;;;;16.57;40.62;96021.41;5095832;28;20019;-58
2022/04/17 08:32:57;;;;;;;3.83;3.53;;;;;;;16.62;40.61;96012.91;5096243;28;20024;-58
2022/04/17 08:35:23;;;;;;;2.90;2.78;;;;;;;16.97;39.78;96009.94;5095358;28;20130;-58
2022/04/17 08:37:49;;;;;;;3.75;3.45;;;;;;;16.93;39.76;96008.63;5096497;28;20110;-58
2022/04/17 08:40:15;;;;;;;4.13;3.35;;;;;;;17.25;39.45;96009.47;5095212;28;20024;-58
2022/04/17 08:42:41;;;;;;;3.83;3.60;;;;;;;16.66;40.24;96000.94;5094205;28;20107;-58
2022/04/17 08:45:10;;;;;;;3.80;3.60;;;;;;;16.81;40.41;95997.56;5096570;28;20060;-58
2022/04/17 08:47:37;;;;;;;3.55;3.35;;;;;;;17.03;40.74;95990.63;5095459;28;20039;-58
2022/04/17 08:50:06;;;;;;;3.28;3.08;;;;;;;16.69;42.17;95992.59;5094973;28;20486;-58
2022/04/17 08:52:33;;;;;;;3.42;3.22;;;;;;;17.17;39.73;95992.56;5092866;28;20105;-58
2022/04/17 08:54:59;;;;;;;3.10;2.90;;;;;;;17.66;38.89;95982.56;5092389;28;20483;-58
2022/04/17 08:57:25;;;;;;;3.65;3.35;;;;;;;17.66;38.56;95984.38;5094922;28;20039;-58
2022/04/17 08:59:50;;;;;;;3.20;3.00;;;;;;;18.02;38.51;95973.94;5092837;28;20429;-58
2022/04/17 09:02:18;;;;;;;3.03;2.83;;;;;;;18.09;38.02;95976.69;5099675;28;20047;-58
2022/04/17 09:04:44;;;;;;;3.03;2.83;;;;;;;18.59;37.05;95966.31;5094963;28;20063;-58
2022/04/17 09:07:11;;;;;;;7.13;3.25;;;;;;;18.45;37.05;95969.78;5093545;28;20056;-58
2022/04/17 09:09:49;;;;;;;3.67;3.47;;;;;;;19.12;35.91;95965.31;5092746;28;20028;-58
2022/04/17 09:12:22;;;;;;;3.15;2.95;;;;;;;18.65;36.37;95963.91;5096487;28;20043;-58
2022/04/17 09:14:47;;;;;;;3.28;3.08;;;;;;;18.59;37.33;95960.16;5093019;28;20066;-58
2022/04/17 09:17:13;;;;;;;6.25;3.50;;;;;;;19.45;35.79;95961.28;5096675;28;20439;-58
2022/04/17 09:19:39;;;;;;;3.00;2.80;;;;;;;19.92;34.53;95963.59;5093690;28;20039;-58
2022/04/17 09:22:05;;;;;;;3.95;3.20;;;;;;;19.88;35.19;95961.25;5092904;28;20027;-58
2022/04/17 09:24:35;;;;;;;3.42;3.22;;;;;;;20.02;33.79;95959.53;5099916;28;20092;-58
2022/04/17 09:27:01;;;;;;;3.17;2.88;;;;;;;20.15;34.11;95955.28;5094636;28;20051;-58
2022/04/17 09:29:29;;;;;;;3.70;3.30;;;;;;;20.02;33.69;95948.84;5094679;28;20141;-58
2022/04/17 09:31:58;;;;;;;3.10;2.90;;;;;;;19.71;34.18;95947.34;5092762;28;20390;-58
2022/04/17 09:34:24;;;;;;;3.00;2.83;;;;;;;19.69;35.10;95949.41;5095100;28;20035;-58
2022/04/17 09:36:59;;;;;;;3.30;3.10;;;;;;;19.85;34.68;95948.28;5093884;28;20520;-58
2022/04/17 09:39:35;;;;;;;5.20;3.30;;;;;;;19.53;35.16;95947.00;5094354;28;20023;-58
2022/04/17 09:42:02;;;;;;;3.58;3.38;;;;;;;19.75;34.43;95948.59;5089670;28;20028;-58
2022/04/17 09:44:46;;;;;;;3.15;2.95;;;;;;;19.74;34.73;95932.78;5093663;28;20168;-58
2022/04/17 09:47:17;;;;;;;3.03;2.83;;;;;;;20.76;33.47;95932.34;5095429;28;20039;-58
2022/04/17 09:49:51;;;;;;;2.92;2.80;;;;;;;20.55;32.08;95935.97;5093361;28;20032;-58
2022/04/17 09:52:18;;;;;;;2.95;2.75;;;;;;;21.06;33.33;95926.69;5091289;28;20387;-58
2022/04/17 09:54:44;;;;;;;5.00;3.00;;;;;;;20.66;32.63;95923.88;5096317;28;20115;-57
2022/04/17 09:57:12;;;;;;;3.90;3.08;;;;;;;21.32;32.25;95917.06;5092776;28;20392;-58
2022/04/17 09:59:38;;;;;;;3.08;2.88;;;;;;;20.95;32.98;95916.59;5093016;28;20111;-58
2022/04/17 10:02:05;;;;;;;3.40;3.10;;;;;;;20.90;32.88;95914.53;5098603;28;20165;-58
2022/04/17 10:04:30;;;;;;;3.25;3.03;;;;;;;21.66;31.57;95907.22;5097193;28;20032;-58
2022/04/17 10:06:59;;;;;;;4.22;2.90;;;;;;;21.77;31.41;95910.28;5098341;28;20028;-59
2022/04/17 10:09:25;;;;;;;2.75;2.55;;;;;;;21.07;33.25;95901.59;5097569;28;20039;-58
2022/04/17 10:11:51;;;;;;;2.95;2.58;;;;;;;21.03;32.02;95911.06;5096544;28;20052;-58
2022/04/17 10:14:18;;;;;;;3.25;2.97;;;;;;;20.73;34.27;95911.38;5099266;28;20412;-58
2022/04/17 10:16:45;;;;;;;4.78;2.70;;;;;;;21.09;32.68;95909.41;5097193;28;20039;-58
2022/04/17 10:19:13;;;;;;;3.03;2.80;;;;;;;21.41;32.04;95910.50;5098227;28;20088;-59
2022/04/17 10:21:39;;;;;;;3.40;3.10;;;;;;;20.58;33.75;95909.66;5091792;28;20024;-58
2022/04/17 10:24:06;;;;;;;3.13;2.92;;;;;;;21.12;33.12;95904.50;5099093;28;20148;-58
2022/04/17 10:26:34;;;;;;;4.50;3.92;;;;;;;21.24;33.00;95904.72;5099951;28;20044;-58
2022/04/17 10:29:04;;;;;;;5.28;2.90;;;;;;;22.12;31.14;95907.38;5092421;28;20023;-58
2022/04/17 10:31:55;;;;;;;3.03;2.83;;;;;;;22.08;30.96;95900.78;5098903;28;20530;-58
2022/04/17 10:34:33;;;;;;;5.30;2.88;;;;;;;21.96;31.46;95901.41;5094344;28;20023;-58
2022/04/17 10:37:19;;;;;;;2.72;2.53;;;;;;;22.09;30.36;95905.13;5099278;28;20039;-58
2022/04/17 10:39:51;;;;;;;3.67;3.30;;;;;;;22.29;30.24;95897.84;5098008;28;20043;-58
2022/04/17 10:42:16;;;;;;;2.92;2.72;;;;;;;22.54;30.51;95890.97;5099599;28;20443;-58
2022/04/17 10:44:42;;;;;;;3.03;2.80;;;;;;;21.64;30.74;95887.81;5098840;28;20063;-58
2022/04/17 10:47:21;;;;;;;5.03;3.33;;;;;;;22.21;30.68;95894.56;5097566;28;20051;-58
2022/04/17 10:49:56;;;;;;;3.28;2.85;;;;;;;21.18;32.30;95890.28;5095332;28;20038;-58
2022/04/17 10:52:32;;;;;;;7.68;2.78;;;;;;;21.61;31.69;95885.56;5096235;28;20035;-59
2022/04/17 10:55:18;;;;;;;3.58;3.38;;;;;;;22.16;31.56;95892.50;5097311;28;20441;-58
2022/04/17 10:57:48;;;;;;;3.55;3.25;;;;;;;22.63;30.48;95889.69;5090997;28;20028;-58
2022/04/17 11:00:28;;;;;;;3.08;2.88;;;;;;;23.02;29.92;95878.97;5101139;28;20020;-58
2022/04/17 11:02:58;;;;;;;5.47;4.97;;;;;;;22.70;30.13;95874.38;5092691;28;20035;-58
2022/04/17 11:08:48;;;;;;;7.82;6.97;;;;;;;22.13;30.91;95869.63;5070429;28;20044;-58
2022/04/17 11:11:14;;;;;;;3.60;3.40;;;;;;;21.88;31.86;95875.69;5069398;28;20037;-58
2022/04/17 11:14:11;;;;;;;11.00;9.25;;;;;;;23.14;29.64;95871.88;5081930;28;20548;-58
2022/04/17 11:16:46;;;;;;;3.08;2.85;;;;;;;23.11;29.22;95866.94;5097704;28;20058;-58
2022/04/17 11:19:13;;;;;;;2.50;2.40;;;;;;;22.61;29.76;95873.81;5097618;28;20071;-58
2022/04/17 11:21:45;;;;;;;2.80;2.60;;;;;;;22.84;30.74;95863.59;5097668;28;20047;-58
2022/04/17 11:24:10;;;;;;;2.25;2.15;;;;;;;23.53;28.81;95868.28;5097145;28;20032;-58
2022/04/17 11:26:59;;;;;;;2.72;2.55;;;;;;;23.37;30.16;95865.13;5096950;28;20376;-58
2022/04/17 11:29:48;;;;;;;6.30;2.42;;;;;;;22.04;30.06;95854.81;5092917;28;20052;-58
2022/04/17 11:32:16;;;;;;;2.33;2.22;;;;;;;23.27;30.27;95854.03;5096853;28;20100;-58
2022/04/17 11:34:52;;;;;;;2.70;2.50;;;;;;;23.66;28.68;95852.03;5092132;28;20085;-58
2022/04/17 11:37:31;;;;;;;4.22;2.63;;;;;;;23.60;29.15;95845.69;5096428;28;20085;-58
2022/04/17 11:40:06;;;;;;;2.95;2.40;;;;;;;23.26;29.83;95849.69;5096692;28;20020;-58
2022/04/17 11:42:40;;;;;;;3.60;2.42;;;;;;;23.44;28.38;95854.31;5094936;28;20043;-58
2022/04/17 11:45:06;;;;;;;4.40;2.15;;;;;;;23.83;28.62;95843.41;5095651;28;20031;-58
2022/04/17 11:47:38;;;;;;;2.17;2.08;;;;;;;23.77;28.18;95838.94;5099192;28;20034;-58
2022/04/17 11:50:06;;;;;;;2.90;2.40;;;;;;;23.75;27.86;95834.59;5095778;28;20032;-58
2022/04/17 11:52:31;;;;;;;2.88;2.60;;;;;;;23.46;29.62;95842.31;5096469;28;20059;-58
2022/04/17 11:55:00;;;;;;;2.42;2.22;;;;;;;23.45;29.13;95837.97;5094353;28;20578;-57
2022/04/17 11:57:26;;;;;;;2.97;2.78;;;;;;;23.15;29.71;95835.91;5095772;28;20039;-58
2022/04/17 11:59:56;;;;;;;2.35;2.20;;;;;;;23.56;28.97;95824.88;5097901;28;20566;-58